Terminal Aerodrome Forecast
Issued by NWS Wilmington, OH

Current Version | Previous Version | Text Only | Print | Product List | Glossary Off
Versions: 1 2 3 4 5 6 7 8 9 10 11 12 13 14 15 16 17 18 19 20 21 22 23 24 25 26

686
FTUS41 KILN 290818 AAA
TAFCMH
TAF AMD
KCMH 290818Z 2908/3006 02006KT P6SM BKN150
     FM291400 04006KT P6SM SCT040
     FM300000 05004KT P6SM SCT080=

USA.gov is the U.S. government's official web portal to all federal, state and local government web resources and services.